Queen, Pennsylvania
Current Conditions -  °F | °C
As of 4:53 PM on Thursday 18 Dec 2014 (Local Time) from KAOO Reporting Station
Overcast Overcast  
Wind Chill: 18°   Ceiling: 2300
Heat Index: 29°   Visibility: 10mi
Dew Point: 21°   Wind: 14mph
Humidity: 72%   Direction: 310°NW
Pressure: 30.08"   Gusts: NA
Location:  40.26°N, 78.51°W
Report Text: KAOO 182153Z AUTO 31012KT 10SM OVC023 M02/M06 A3008 RMK AO2 SLP202 T10171061
Loading
Personal Weather Stations






























Interactive Weather Map New forecast layout! Learn more

10-Day Weather Forecast

Advertisements
Track Severe Weather on mobile